createdAt,value
2018-03-24T00:00:10.629Z,0.52
2018-03-24T00:02:40.096Z,0.39
2018-03-24T00:05:09.938Z,0.37
2018-03-24T00:07:39.421Z,0.30
2018-03-24T00:10:09.424Z,0.29
2018-03-24T00:12:39.289Z,0.31
2018-03-24T00:15:08.774Z,0.34
2018-03-24T00:17:38.234Z,0.28
2018-03-24T00:20:07.714Z,0.27
2018-03-24T00:22:37.160Z,0.27
2018-03-24T00:25:07.220Z,0.23
2018-03-24T00:27:36.680Z,0.26
2018-03-24T00:30:06.528Z,0.22
2018-03-24T00:32:36.008Z,0.17
2018-03-24T00:35:05.862Z,0.01
2018-03-24T00:37:35.317Z,-0.01
2018-03-24T00:40:04.712Z,-0.10
2018-03-24T00:42:34.562Z,-0.06
2018-03-24T00:45:03.787Z,-0.12
2018-03-24T00:47:33.272Z,-0.14
2018-03-24T00:50:02.735Z,-0.20
2018-03-24T00:52:32.598Z,-0.15
2018-03-24T00:55:02.256Z,-0.21
2018-03-24T00:57:31.526Z,-0.35
2018-03-24T01:00:01.009Z,-0.37
2018-03-24T01:02:30.472Z,-0.41
2018-03-24T01:05:00.318Z,-0.37
2018-03-24T01:07:29.438Z,-0.34
2018-03-24T01:09:58.900Z,-0.43
2018-03-24T01:12:28.766Z,-0.53
2018-03-24T01:14:58.236Z,-0.59
2018-03-24T01:17:27.680Z,-0.59
2018-03-24T01:19:57.126Z,-0.55
2018-03-24T01:22:26.587Z,-0.57
2018-03-24T01:24:56.043Z,-0.63
2018-03-24T01:27:25.486Z,-0.71
2018-03-24T01:29:54.960Z,-0.78
2018-03-24T01:32:24.402Z,-0.78
2018-03-24T01:34:53.862Z,-0.75
2018-03-24T01:37:23.320Z,-0.73
2018-03-24T01:39:52.777Z,-0.72
2018-03-24T01:42:22.224Z,-0.67
2018-03-24T01:44:51.673Z,-0.72
2018-03-24T01:47:21.518Z,-0.67
2018-03-24T01:49:51.014Z,-0.71
2018-03-24T01:52:20.469Z,-0.88
2018-03-24T01:54:50.122Z,-0.96
2018-03-24T01:57:19.568Z,-1.06
2018-03-24T01:59:49.024Z,-1.04
2018-03-24T02:02:18.485Z,-1.07
2018-03-24T02:04:48.158Z,-1.04
2018-03-24T02:07:17.829Z,-1.14
2018-03-24T02:09:47.675Z,-1.12
2018-03-24T02:12:17.124Z,-1.11
2018-03-24T02:14:46.574Z,-1.19
2018-03-24T02:17:16.017Z,-1.18
2018-03-24T02:19:45.294Z,-1.15
2018-03-24T02:22:14.411Z,-1.16
2018-03-24T02:27:49.060Z,-1.18
2018-03-24T02:30:18.337Z,-1.16
2018-03-24T02:32:47.623Z,-1.20
2018-03-24T02:35:17.079Z,-1.18
2018-03-24T02:37:46.582Z,-1.18
2018-03-24T02:40:16.233Z,-1.15
2018-03-24T02:42:45.685Z,-1.16
2018-03-24T02:45:15.142Z,-1.16
2018-03-24T02:47:44.608Z,-1.03
2018-03-24T02:50:14.538Z,-0.86
2018-03-24T02:52:44.407Z,-0.67
2018-03-24T02:55:14.073Z,-0.44
2018-03-24T02:57:43.927Z,-0.38
2018-03-24T03:00:13.588Z,-0.14
2018-03-24T03:02:43.445Z,-0.19
2018-03-24T03:05:12.904Z,-0.20
2018-03-24T03:07:42.775Z,-0.10
2018-03-24T03:10:12.426Z,0.01
2018-03-24T03:12:42.280Z,0.00
2018-03-24T03:15:11.736Z,0.16
2018-03-24T03:17:41.198Z,-0.07
2018-03-24T03:20:10.485Z,0.03
2018-03-24T03:22:39.944Z,-0.28
2018-03-24T03:25:09.803Z,-0.43
2018-03-24T03:27:39.264Z,-0.48
2018-03-24T03:30:13.958Z,-0.63
2018-03-24T03:32:43.234Z,-0.61
2018-03-24T03:35:12.688Z,-0.47
2018-03-24T03:37:42.154Z,-0.34
2018-03-24T03:40:11.616Z,-0.25
2018-03-24T03:42:41.475Z,-0.09
2018-03-24T03:45:10.938Z,-0.08
2018-03-24T03:47:40.997Z,-0.26
2018-03-24T03:50:10.758Z,-0.29
2018-03-24T03:52:40.620Z,-0.36
2018-03-24T03:55:10.086Z,-0.30
2018-03-24T03:57:39.940Z,-0.34
2018-03-24T04:00:09.704Z,-0.28
2018-03-24T04:02:39.572Z,-0.23
2018-03-24T04:05:09.076Z,-0.33
2018-03-24T04:07:38.593Z,-0.21
2018-03-24T04:10:08.582Z,0.00
2018-03-24T04:12:38.628Z,-0.08
2018-03-24T04:15:08.096Z,0.14
2018-03-24T04:17:37.553Z,-0.10
2018-03-24T04:20:06.684Z,-0.30
2018-03-24T04:22:36.530Z,-0.39
2018-03-24T04:25:05.792Z,-0.45
2018-03-24T04:27:35.671Z,-0.46
2018-03-24T04:30:04.232Z,-0.52
2018-03-24T04:32:33.695Z,-0.32
2018-03-24T04:35:03.543Z,-0.46
2018-03-24T04:37:32.994Z,-0.56
2018-03-24T04:40:02.458Z,-0.59
2018-03-24T04:42:31.916Z,-0.59
2018-03-24T04:45:01.796Z,-0.48
2018-03-24T04:47:31.255Z,-0.47
2018-03-24T04:50:00.718Z,-0.32
2018-03-24T04:52:30.174Z,-0.44
2018-03-24T04:54:59.653Z,-0.47
2018-03-24T04:57:29.512Z,-0.48
2018-03-24T04:59:58.971Z,-0.37
2018-03-24T05:02:28.830Z,-0.36
2018-03-24T05:04:58.283Z,-0.47
2018-03-24T05:07:28.140Z,-0.52
2018-03-24T05:09:57.586Z,-0.52
2018-03-24T05:12:27.041Z,-0.59
2018-03-24T05:14:56.518Z,-0.39
2018-03-24T05:17:26.375Z,-0.26
2018-03-24T05:19:55.836Z,-0.27
2018-03-24T05:22:25.687Z,-0.15
2018-03-24T05:24:55.358Z,-0.22
2018-03-24T05:27:25.430Z,-0.25
2018-03-24T05:29:54.890Z,0.11
2018-03-24T05:32:24.343Z,0.14
2018-03-24T05:34:53.786Z,0.00
2018-03-24T05:37:23.639Z,-0.12
2018-03-24T05:39:53.095Z,-0.17
2018-03-24T05:42:22.967Z,-0.26
2018-03-24T05:44:52.419Z,-0.26
2018-03-24T05:47:22.282Z,-0.23
2018-03-24T05:49:51.761Z,-0.26
2018-03-24T05:52:21.225Z,-0.25
2018-03-24T05:54:50.689Z,-0.19
2018-03-24T05:57:20.159Z,-0.03
2018-03-24T05:59:50.199Z,0.22
2018-03-24T06:02:19.645Z,0.34
2018-03-24T06:04:49.119Z,0.41
2018-03-24T06:07:18.576Z,0.54
2018-03-24T06:09:48.496Z,0.46
2018-03-24T06:12:17.950Z,0.38
2018-03-24T06:14:47.408Z,0.22
2018-03-24T06:17:17.248Z,0.12
2018-03-24T06:19:46.710Z,0.26
2018-03-24T06:22:16.164Z,0.57
2018-03-24T06:24:45.613Z,0.61
2018-03-24T06:27:15.092Z,0.71
2018-03-24T06:29:44.353Z,0.81
2018-03-24T06:32:13.993Z,0.94
2018-03-24T06:34:43.255Z,0.99
2018-03-24T06:37:19.393Z,1.24
2018-03-24T06:39:48.869Z,1.20
2018-03-24T06:42:18.323Z,1.31
2018-03-24T06:44:47.842Z,1.42
2018-03-24T06:47:17.911Z,1.54
2018-03-24T06:49:47.368Z,1.61
2018-03-24T06:52:16.821Z,1.66
2018-03-24T06:54:46.266Z,1.74
2018-03-24T06:57:15.715Z,1.79
2018-03-24T06:59:45.182Z,2.11
2018-03-24T07:02:14.668Z,2.69
2018-03-24T07:04:44.503Z,3.54
2018-03-24T07:07:13.978Z,4.98
2018-03-24T07:09:43.420Z,6.27
2018-03-24T07:12:12.861Z,7.05
2018-03-24T07:14:42.305Z,9.09
2018-03-24T07:17:12.155Z,10.86
2018-03-24T07:19:41.793Z,12.33
2018-03-24T07:22:11.243Z,13.61
2018-03-24T07:24:40.692Z,14.54
2018-03-24T07:27:10.156Z,14.50
2018-03-24T07:29:39.612Z,14.39
2018-03-24T07:32:09.061Z,15.18
2018-03-24T07:34:39.087Z,15.49
2018-03-24T07:37:08.544Z,15.43
2018-03-24T07:39:38.018Z,15.66
2018-03-24T07:42:07.508Z,15.92
2018-03-24T07:44:37.161Z,15.36
2018-03-24T07:47:06.275Z,15.39
2018-03-24T07:49:36.153Z,15.19
2018-03-24T07:52:05.608Z,14.83
2018-03-24T07:54:35.459Z,16.83
2018-03-24T07:57:04.920Z,16.72
2018-03-24T07:59:34.596Z,16.12
2018-03-24T08:02:04.052Z,16.16
2018-03-24T08:04:33.506Z,16.39
2018-03-24T08:07:02.965Z,15.76
2018-03-24T08:09:32.413Z,16.75
2018-03-24T08:12:01.881Z,16.77
2018-03-24T08:14:31.346Z,16.66
2018-03-24T08:17:00.814Z,16.08
2018-03-24T08:19:30.445Z,16.07
2018-03-24T08:21:59.915Z,16.34
2018-03-24T08:24:29.370Z,16.54
2018-03-24T08:26:59.235Z,14.78
2018-03-24T08:29:28.693Z,14.05
2018-03-24T08:31:58.545Z,13.43
2018-03-24T08:34:27.997Z,11.92
2018-03-24T08:36:57.461Z,10.77
2018-03-24T08:39:26.915Z,9.72
2018-03-24T08:41:56.353Z,8.37
2018-03-24T08:44:25.799Z,8.01
2018-03-24T08:46:55.242Z,7.81
2018-03-24T08:49:24.697Z,7.52
2018-03-24T08:51:54.138Z,7.76
2018-03-24T08:54:24.003Z,7.37
2018-03-24T08:56:53.441Z,6.32
2018-03-24T08:59:22.879Z,5.67
2018-03-24T09:01:52.332Z,5.49
2018-03-24T09:04:21.767Z,5.89
2018-03-24T09:06:51.641Z,5.84
2018-03-24T09:09:21.083Z,5.92
2018-03-24T09:11:50.520Z,5.92
2018-03-24T09:14:19.965Z,5.82
2018-03-24T09:16:49.428Z,5.85
2018-03-24T09:19:18.880Z,5.85
2018-03-24T09:21:48.323Z,6.15
2018-03-24T09:24:18.178Z,6.65
2018-03-24T09:26:47.632Z,6.72
2018-03-24T09:29:17.481Z,6.33
2018-03-24T09:31:46.924Z,6.15
2018-03-24T09:34:16.359Z,6.33
2018-03-24T09:36:46.203Z,6.88
2018-03-24T09:39:15.655Z,6.77
2018-03-24T09:41:45.274Z,6.89
2018-03-24T09:44:15.147Z,6.72
2018-03-24T09:46:44.603Z,7.31
2018-03-24T09:49:14.443Z,7.11
2018-03-24T09:51:44.566Z,6.92
2018-03-24T09:54:14.031Z,7.50
2018-03-24T09:56:43.891Z,7.82
2018-03-24T09:59:13.322Z,8.05
2018-03-24T10:01:42.757Z,8.34
2018-03-24T10:04:12.602Z,8.52
2018-03-24T10:06:42.049Z,8.44
2018-03-24T10:09:11.502Z,8.37
2018-03-24T10:11:40.942Z,8.65
2018-03-24T10:14:10.388Z,8.85
2018-03-24T10:16:40.230Z,8.34
2018-03-24T10:19:09.691Z,8.65
2018-03-24T10:24:50.234Z,9.15
2018-03-24T10:27:19.690Z,8.80
2018-03-24T10:29:49.532Z,8.93
2018-03-24T10:32:18.970Z,9.06
2018-03-24T10:34:53.704Z,9.21
2018-03-24T10:37:23.164Z,9.64
2018-03-24T10:39:52.620Z,10.04
2018-03-24T10:42:22.136Z,10.16
2018-03-24T10:44:51.602Z,10.18
2018-03-24T10:47:21.046Z,10.34
2018-03-24T10:49:50.298Z,10.33
2018-03-24T10:52:19.766Z,10.28
2018-03-24T10:54:49.342Z,10.69
2018-03-24T10:57:18.802Z,9.82
2018-03-24T10:59:48.062Z,9.82
2018-03-24T11:02:17.317Z,9.96
2018-03-24T11:04:46.964Z,10.48
2018-03-24T11:07:16.418Z,10.50
2018-03-24T11:09:45.873Z,10.07
2018-03-24T11:12:15.325Z,9.95
2018-03-24T11:14:44.793Z,10.28
2018-03-24T11:17:14.246Z,9.36
2018-03-24T11:19:43.690Z,9.68
2018-03-24T11:22:13.144Z,9.59
2018-03-24T11:24:42.566Z,9.71
2018-03-24T11:27:11.922Z,9.53
2018-03-24T11:29:41.826Z,9.50
2018-03-24T11:32:11.466Z,10.22
2018-03-24T11:34:40.915Z,10.55
2018-03-24T11:37:10.375Z,10.51
2018-03-24T11:39:39.828Z,10.30
2018-03-24T11:42:09.266Z,10.04
2018-03-24T11:44:39.136Z,10.58
2018-03-24T11:47:08.596Z,10.96
2018-03-24T11:49:38.448Z,10.60
2018-03-24T11:52:08.912Z,10.71
2018-03-24T11:54:45.378Z,11.38
2018-03-24T11:57:14.833Z,11.14
2018-03-24T11:59:44.316Z,11.26
2018-03-24T12:02:14.186Z,11.85
2018-03-24T12:04:43.929Z,12.12
2018-03-24T12:07:13.794Z,12.53
2018-03-24T12:09:43.261Z,12.50
2018-03-24T12:12:12.722Z,12.48
2018-03-24T12:14:42.194Z,12.04
2018-03-24T12:17:11.664Z,12.23
2018-03-24T12:19:41.782Z,12.18
2018-03-24T12:22:11.677Z,11.41
2018-03-24T12:24:42.152Z,11.08
2018-03-24T12:27:11.615Z,11.15
2018-03-24T12:29:41.270Z,10.81
2018-03-24T12:32:10.715Z,10.70
2018-03-24T12:34:40.170Z,11.37
2018-03-24T12:37:09.855Z,11.98
2018-03-24T12:39:39.735Z,12.39
2018-03-24T12:42:09.191Z,12.39
2018-03-24T12:44:38.636Z,12.80
2018-03-24T12:47:08.099Z,13.08
2018-03-24T12:49:37.958Z,12.51
2018-03-24T12:52:07.475Z,12.76
2018-03-24T12:54:36.968Z,12.66
2018-03-24T12:57:06.440Z,11.78
2018-03-24T12:59:35.903Z,11.08
2018-03-24T13:02:05.355Z,10.97
2018-03-24T13:04:34.807Z,11.54
2018-03-24T13:07:04.020Z,11.66
2018-03-24T13:09:33.483Z,11.48
2018-03-24T13:12:02.943Z,11.73
2018-03-24T13:14:32.996Z,11.98
2018-03-24T13:17:02.444Z,12.12
2018-03-24T13:19:31.888Z,12.18
2018-03-24T13:22:01.674Z,12.20
2018-03-24T13:24:31.527Z,12.54
2018-03-24T13:27:00.977Z,12.55
2018-03-24T13:29:30.437Z,12.81
2018-03-24T13:31:59.982Z,13.05
2018-03-24T13:34:29.589Z,12.76
2018-03-24T13:36:59.257Z,12.65
2018-03-24T13:39:28.720Z,13.01
2018-03-24T13:41:58.194Z,13.34
2018-03-24T13:44:27.702Z,13.64
2018-03-24T13:46:57.191Z,13.69
2018-03-24T13:49:27.638Z,13.72
2018-03-24T13:51:57.403Z,13.81
2018-03-24T13:54:26.890Z,13.78
2018-03-24T13:56:56.738Z,13.81
2018-03-24T13:59:26.196Z,13.53
2018-03-24T14:01:55.652Z,13.29
2018-03-24T14:04:25.120Z,13.55
2018-03-24T14:06:54.983Z,13.40
2018-03-24T14:09:24.832Z,13.43
2018-03-24T14:11:54.285Z,13.45
2018-03-24T14:14:23.734Z,13.11
2018-03-24T14:16:53.464Z,13.21
2018-03-24T14:19:23.338Z,13.52
2018-03-24T14:21:52.606Z,13.60
2018-03-24T14:24:22.074Z,13.50
2018-03-24T14:26:51.253Z,13.62
2018-03-24T14:29:20.700Z,13.60
2018-03-24T14:31:50.154Z,13.51
2018-03-24T14:34:19.628Z,13.74
2018-03-24T14:36:49.110Z,13.58
2018-03-24T14:39:18.302Z,13.47
2018-03-24T14:41:48.146Z,13.49
2018-03-24T14:44:17.616Z,13.31
2018-03-24T14:46:47.564Z,13.48
2018-03-24T14:49:17.704Z,13.66
2018-03-24T14:51:47.189Z,13.29
2018-03-24T14:54:16.624Z,13.34
2018-03-24T14:56:46.118Z,13.60
2018-03-24T14:59:15.788Z,13.63
2018-03-24T15:01:44.961Z,13.66
2018-03-24T15:04:14.414Z,13.75
2018-03-24T15:06:43.954Z,13.65
2018-03-24T15:09:13.406Z,13.41
2018-03-24T15:11:42.889Z,13.23
2018-03-24T15:14:12.746Z,13.50
2018-03-24T15:16:42.440Z,13.67
2018-03-24T15:19:12.660Z,13.63
2018-03-24T15:21:42.118Z,13.47
2018-03-24T15:24:11.579Z,13.36
2018-03-24T15:26:41.044Z,13.19
2018-03-24T15:29:27.593Z,13.17
2018-03-24T15:32:13.909Z,13.15
2018-03-24T15:35:00.144Z,13.15
2018-03-24T15:37:29.638Z,13.08
2018-03-24T15:39:59.082Z,13.09
2018-03-24T15:42:28.531Z,12.98
2018-03-24T15:44:58.007Z,13.01
2018-03-24T15:47:27.472Z,13.17
2018-03-24T15:49:57.343Z,13.17
2018-03-24T15:52:26.802Z,13.14
2018-03-24T15:54:56.682Z,12.97
2018-03-24T15:57:26.166Z,13.01
2018-03-24T15:59:55.672Z,13.04
2018-03-24T16:02:25.407Z,12.90
2018-03-24T16:04:55.394Z,12.84
2018-03-24T16:07:24.879Z,12.77
2018-03-24T16:09:54.352Z,12.96
2018-03-24T16:12:23.841Z,12.84
2018-03-24T16:14:53.291Z,12.73
2018-03-24T16:17:22.634Z,12.57
2018-03-24T16:19:52.126Z,12.49
2018-03-24T16:22:21.599Z,12.49
2018-03-24T16:24:51.080Z,12.44
2018-03-24T16:27:21.004Z,12.42
2018-03-24T16:29:50.465Z,12.34
2018-03-24T16:32:19.925Z,12.49
2018-03-24T16:34:49.379Z,12.46
2018-03-24T16:37:18.852Z,12.32
2018-03-24T16:39:48.329Z,12.18
2018-03-24T16:42:17.804Z,12.20
2018-03-24T16:44:47.277Z,12.04
2018-03-24T16:47:16.756Z,11.95
2018-03-24T16:49:46.230Z,11.69
2018-03-24T16:52:15.817Z,11.43
2018-03-24T16:54:45.748Z,11.34
2018-03-24T16:57:15.230Z,11.33
2018-03-24T16:59:44.835Z,11.24
2018-03-24T17:02:14.475Z,11.03
2018-03-24T17:04:44.371Z,10.92
2018-03-24T17:07:13.950Z,10.82
2018-03-24T17:09:43.612Z,10.74
2018-03-24T17:12:14.266Z,10.60
2018-03-24T17:14:43.737Z,10.47
2018-03-24T17:17:13.226Z,10.35
2018-03-24T17:19:42.755Z,10.22
2018-03-24T17:22:13.399Z,10.20
2018-03-24T17:24:43.293Z,10.20
2018-03-24T17:27:12.754Z,10.25
2018-03-24T17:29:42.409Z,10.25
2018-03-24T17:32:12.503Z,10.27
2018-03-24T17:34:41.989Z,10.17
2018-03-24T17:37:11.427Z,10.15
2018-03-24T17:39:40.873Z,10.10
2018-03-24T17:42:10.357Z,9.99
2018-03-24T17:44:40.193Z,9.87
2018-03-24T17:47:09.739Z,9.87
2018-03-24T17:49:39.273Z,9.78
2018-03-24T17:52:08.869Z,9.71
2018-03-24T17:54:38.319Z,9.63
2018-03-24T17:57:07.795Z,9.54
2018-03-24T17:59:37.453Z,9.32
2018-03-24T18:02:07.147Z,9.26
2018-03-24T18:04:36.809Z,9.14
2018-03-24T18:07:08.013Z,9.14
2018-03-24T18:09:37.649Z,9.14
2018-03-24T18:12:07.137Z,9.11
2018-03-24T18:14:36.571Z,9.01
2018-03-24T18:17:06.011Z,8.99
2018-03-24T18:19:35.472Z,8.87
2018-03-24T18:22:05.099Z,8.89
2018-03-24T18:24:34.571Z,8.98
2018-03-24T18:27:04.014Z,8.89
2018-03-24T18:29:34.077Z,8.97
2018-03-24T18:32:03.563Z,8.86
2018-03-24T18:34:33.253Z,8.74
2018-03-24T18:37:02.985Z,8.67
2018-03-24T18:39:32.488Z,8.51
2018-03-24T18:42:01.444Z,8.52
2018-03-24T18:44:31.081Z,8.40
2018-03-24T18:47:00.619Z,8.32
2018-03-24T18:49:30.055Z,8.24
2018-03-24T18:51:59.520Z,8.26
2018-03-24T18:54:29.367Z,8.15
2018-03-24T18:56:59.367Z,8.01
2018-03-24T18:59:28.837Z,8.01
2018-03-24T19:01:58.511Z,7.96
2018-03-24T19:04:28.371Z,7.89
2018-03-24T19:06:57.897Z,7.86
2018-03-24T19:09:27.630Z,7.67
2018-03-24T19:11:57.559Z,7.77
2018-03-24T19:14:27.017Z,7.63
2018-03-24T19:16:56.519Z,7.54
2018-03-24T19:19:26.105Z,7.43
2018-03-24T19:21:55.575Z,7.58
2018-03-24T19:24:25.034Z,7.20
2018-03-24T19:26:54.779Z,7.25
2018-03-24T19:29:24.369Z,7.17
2018-03-24T19:31:54.179Z,7.20
2018-03-24T19:34:23.773Z,7.13
2018-03-24T19:36:53.351Z,7.14
2018-03-24T19:39:23.739Z,7.07
2018-03-24T19:41:53.988Z,7.05
2018-03-24T19:44:23.621Z,7.04
2018-03-24T19:46:53.871Z,7.01
2018-03-24T19:49:23.717Z,6.99
2018-03-24T19:51:53.959Z,6.91
2018-03-24T19:54:23.603Z,6.91
2018-03-24T19:56:53.183Z,6.91
2018-03-24T19:59:23.413Z,6.72
2018-03-24T20:01:53.649Z,6.88
2018-03-24T20:04:23.548Z,6.74
2018-03-24T20:06:53.421Z,6.54
2018-03-24T20:09:23.452Z,6.55
2018-03-24T20:11:53.265Z,6.56
2018-03-24T20:14:23.311Z,6.58
2018-03-24T20:16:53.590Z,6.49
2018-03-24T20:19:24.711Z,6.33
2018-03-24T20:21:54.573Z,6.20
2018-03-24T20:24:24.229Z,6.13
2018-03-24T20:26:53.897Z,6.18
2018-03-24T20:29:23.763Z,6.32
2018-03-24T20:31:53.388Z,6.23
2018-03-24T20:34:23.446Z,6.32
2018-03-24T20:36:53.095Z,6.25
2018-03-24T20:39:22.966Z,6.12
2018-03-24T20:41:52.849Z,6.15
2018-03-24T20:44:22.873Z,5.98
2018-03-24T20:46:53.677Z,5.87
2018-03-24T20:49:23.305Z,5.94
2018-03-24T20:51:52.915Z,5.83
2018-03-24T20:54:22.747Z,5.80
2018-03-24T20:56:52.360Z,5.60
2018-03-24T20:59:21.843Z,5.53
2018-03-24T21:01:51.319Z,5.48
2018-03-24T21:04:20.797Z,5.49
2018-03-24T21:06:50.655Z,5.48
2018-03-24T21:09:20.297Z,5.59
2018-03-24T21:11:49.796Z,5.65
2018-03-24T21:14:19.373Z,5.44
2018-03-24T21:16:48.971Z,5.65
2018-03-24T21:19:18.449Z,5.54
2018-03-24T21:21:48.399Z,5.40
2018-03-24T21:24:17.985Z,5.32
2018-03-24T21:26:48.063Z,5.39
2018-03-24T21:29:17.608Z,5.27
2018-03-24T21:31:47.071Z,5.29
2018-03-24T21:34:16.531Z,5.17
2018-03-24T21:36:46.049Z,5.12
2018-03-24T21:39:15.543Z,5.23
2018-03-24T21:41:45.231Z,5.18
2018-03-24T21:44:15.089Z,5.13
2018-03-24T21:46:44.770Z,5.22
2018-03-24T21:49:14.344Z,5.25
2018-03-24T21:51:43.829Z,5.20
2018-03-24T21:54:13.582Z,5.23
2018-03-24T21:56:43.442Z,5.21
2018-03-24T21:59:12.886Z,5.19
2018-03-24T22:01:42.732Z,5.23
2018-03-24T22:04:12.171Z,5.21
2018-03-24T22:06:41.639Z,5.11
2018-03-24T22:09:11.367Z,5.11
2018-03-24T22:11:41.163Z,5.03
2018-03-24T22:14:12.616Z,5.06
2018-03-24T22:16:42.106Z,4.97
2018-03-24T22:19:13.452Z,4.98
2018-03-24T22:21:43.040Z,4.87
2018-03-24T22:24:12.931Z,4.84
2018-03-24T22:26:42.877Z,4.81
2018-03-24T22:29:12.804Z,4.86
2018-03-24T22:31:42.266Z,4.89
2018-03-24T22:34:19.129Z,4.97
2018-03-24T22:36:56.547Z,4.71
2018-03-24T22:39:32.284Z,4.68
2018-03-24T22:42:02.513Z,4.51
2018-03-24T22:44:31.998Z,4.49
2018-03-24T22:47:03.294Z,4.35
2018-03-24T22:49:32.893Z,4.40
2018-03-24T22:52:02.766Z,4.30
2018-03-24T22:54:32.236Z,4.23
2018-03-24T22:57:01.792Z,4.25
2018-03-24T22:59:31.252Z,4.27
2018-03-24T23:02:00.692Z,4.20
2018-03-24T23:04:30.162Z,4.13
2018-03-24T23:06:59.620Z,4.06
2018-03-24T23:09:29.122Z,4.10
2018-03-24T23:11:59.519Z,4.28
2018-03-24T23:14:29.009Z,4.29
2018-03-24T23:16:59.834Z,4.12
2018-03-24T23:19:29.307Z,3.80
2018-03-24T23:21:58.802Z,3.82
2018-03-24T23:24:28.266Z,3.82
2018-03-24T23:26:57.749Z,3.90
2018-03-24T23:33:03.616Z,3.73
2018-03-24T23:35:33.470Z,3.71
2018-03-24T23:38:03.430Z,3.69
2018-03-24T23:40:32.706Z,3.83
2018-03-24T23:43:02.155Z,3.98
2018-03-24T23:45:32.042Z,4.00
2018-03-24T23:48:01.500Z,3.87
2018-03-24T23:50:30.977Z,3.88
2018-03-24T23:53:00.472Z,3.86
2018-03-24T23:55:30.344Z,3.76
2018-03-24T23:57:59.856Z,3.75
